Santa Rita do Sapucai, Brazil
Current Conditions -  °F | °C
As of 7:00 AM on Friday 19 Dec 2014 (Local Time) from SBGW Reporting Station
Haze Haze  
Wind Chill: 70°   Ceiling: 8000
Heat Index: 70°   Visibility: 3mi
Dew Point: 66°   Wind: 2mph
Humidity: 88%   Direction: 150°SSE
Pressure: 29.88"   Gusts: NA
Location:  22.25°S, 45.7°W
Report Text: SBGW 190900Z 15002KT 5000 BR SCT008 BKN080 21/19 Q1012
Loading
Personal Weather Stations






























Interactive Weather Map New forecast layout! Learn more

10-Day Weather Forecast

Advertisements
Track Severe Weather on mobile